Time;durP1;ratioP1;P1;durP2;ratioP2;P2;SDS_P1;SDS_P2;PMS_P1;PMS_P2;Temp;Humidity;BMP_temperature;BMP_pressure;BME280_temperature;BME280_humidity;BME280_pressure;Samples;Min_cycle;Max_cycle;Signal;HPM_P1;HPM_P2
2021/09/28 00:00:13;;;;;;;;;;;;;;;;;;2058837;28;1802;-86
2021/09/28 00:01:16;;;;;;;;;;;;;;;;;;2058747;28;1222;-86
2021/09/28 00:02:17;;;;;;;;;;;;;;;;;;2066642;28;1276;-86
2021/09/28 00:03:19;;;;;;;;;;;;;;;;;;2066121;28;1903;-86
2021/09/28 00:04:19;;;;;;;;;;;;;;;;;;2066595;28;1367;-86
2021/09/28 00:05:21;;;;;;;;;;;;;;;;;;2059009;28;1845;-86
2021/09/28 00:06:22;;;;;;;;;;;;;;;;;;2066352;28;1377;-85
2021/09/28 00:07:24;;;;;;;;;;;;;;;;;;2058514;28;1261;-86
2021/09/28 00:08:26;;;;;;;;;;;;;;;;;;2066506;28;1854;-86
2021/09/28 00:09:28;;;;;;;;;;;;;;;;;;2066711;28;1441;-86
2021/09/28 00:10:30;;;;;;;;;;;;;;;;;;2067702;28;1876;-86
2021/09/28 00:11:31;;;;;;;;;;;;;;;;;;2068283;28;1308;-86
2021/09/28 00:12:32;;;;;;;;;;;;;;;;;;2068238;28;1291;-86
2021/09/28 00:13:34;;;;;;;;;;;;;;;;;;2068128;28;1854;-86
2021/09/28 00:14:35;;;;;;;;;;;;;;;;;;2068126;28;1295;-86
2021/09/28 00:15:36;;;;;;;;;;;;;;;;;;2068578;28;1891;-86
2021/09/28 00:16:37;;;;;;;;;;;;;;;;;;2060032;28;1271;-86
2021/09/28 00:17:39;;;;;;;;;;;;;;;;;;2060216;28;1353;-86
2021/09/28 00:18:40;;;;;;;;;;;;;;;;;;2063910;28;1949;-86
2021/09/28 00:19:42;;;;;;;;;;;;;;;;;;2076226;28;1232;-86
2021/09/28 00:20:43;;;;;;;;;;;;;;;;;;2072683;28;1895;-86
2021/09/28 00:21:44;;;;;;;;;;;;;;;;;;2068017;28;1236;-86
2021/09/28 00:22:46;;;;;;;;;;;;;;;;;;2068165;28;1344;-86
2021/09/28 00:23:49;;;;;;;;;;;;;;;;;;2076135;28;1318;-86
2021/09/28 00:24:50;;;;;;;;;;;;;;;;;;2084254;28;1191;-86
2021/09/28 00:25:51;;;;;;;;;;;;;;;;;;2071642;28;1950;-86
2021/09/28 00:26:52;;;;;;;;;;;;;;;;;;2076116;28;1345;-86
2021/09/28 00:27:54;;;;;;;;;;;;;;;;;;2068042;28;1249;-87
2021/09/28 00:28:55;;;;;;;;;;;;;;;;;;2074549;28;2102;-87
2021/09/28 00:29:58;;;;;;;;;;;;;;;;;;2084601;28;1218;-87
2021/09/28 00:31:00;;;;;;;;;;;;;;;;;;2075448;28;2038;-87
2021/09/28 00:32:01;;;;;;;;;;;;;;;;;;2076371;28;1216;-87
2021/09/28 00:33:03;;;;;;;;;;;;;;;;;;2068189;28;1264;-87
2021/09/28 00:34:03;;;;;;;;;;;;;;;;;;2060393;28;1984;-87
2021/09/28 00:35:06;;;;;;;;;;;;;;;;;;2059748;28;1951;-87
2021/09/28 00:36:07;;;;;;;;;;;;;;;;;;2067567;28;1295;-86
2021/09/28 00:37:09;;;;;;;;;;;;;;;;;;2059889;28;1210;-87
2021/09/28 00:38:09;;;;;;;;;;;;;;;;;;2059865;28;1193;-86
2021/09/28 00:39:12;;;;;;;;;;;;;;;;;;2067976;28;1914;-87
2021/09/28 00:40:13;;;;;;;;;;;;;;;;;;2075816;28;1768;-86
2021/09/28 00:41:15;;;;;;;;;;;;;;;;;;2078130;28;1263;-86
2021/09/28 00:42:16;;;;;;;;;;;;;;;;;;2061495;28;1393;-85
2021/09/28 00:43:18;;;;;;;;;;;;;;;;;;2070739;28;1880;-86
2021/09/28 00:44:29;;;;;;;;;;;;;;;;;;2078338;28;1201;-86
2021/09/28 00:45:31;;;;;;;;;;;;;;;;;;2063032;28;1376;-86
2021/09/28 00:46:31;;;;;;;;;;;;;;;;;;2070112;28;1371;-86
2021/09/28 00:47:34;;;;;;;;;;;;;;;;;;2070387;28;1358;-85
2021/09/28 00:48:34;;;;;;;;;;;;;;;;;;2067948;28;1256;-87
2021/09/28 00:49:39;;;;;;;;;;;;;;;;;;2068298;28;1352;-87
2021/09/28 00:50:40;;;;;;;;;;;;;;;;;;2072674;28;2078;-88
2021/09/28 00:51:42;;;;;;;;;;;;;;;;;;2076249;28;1244;-86
2021/09/28 00:52:43;;;;;;;;;;;;;;;;;;2067479;28;1309;-86
2021/09/28 00:53:45;;;;;;;;;;;;;;;;;;2067571;28;1945;-86
2021/09/28 00:54:48;;;;;;;;;;;;;;;;;;2067696;28;1339;-86
2021/09/28 00:55:49;;;;;;;;;;;;;;;;;;2068048;28;1359;-85
2021/09/28 00:56:50;;;;;;;;;;;;;;;;;;2075788;28;1311;-85
2021/09/28 00:57:52;;;;;;;;;;;;;;;;;;2076351;28;1272;-86
2021/09/28 00:58:53;;;;;;;;;;;;;;;;;;2067199;28;1919;-86
2021/09/28 00:59:55;;;;;;;;;;;;;;;;;;2068068;28;1444;-86
2021/09/28 01:00:55;;;;;;;;;;;;;;;;;;2067782;28;1271;-85
2021/09/28 01:01:57;;;;;;;;;;;;;;;;;;2060120;28;1352;-86
2021/09/28 01:02:59;;;;;;;;;;;;;;;;;;2059585;28;1492;-85
2021/09/28 01:04:00;;;;;;;;;;;;;;;;;;2060014;28;1250;-85
2021/09/28 01:05:03;;;;;;;;;;;;;;;;;;2067580;28;1370;-86
2021/09/28 01:06:05;;;;;;;;;;;;;;;;;;2067546;28;1332;-86
2021/09/28 01:07:07;;;;;;;;;;;;;;;;;;2059854;28;1253;-85
2021/09/28 01:08:08;;;;;;;;;;;;;;;;;;2068097;28;1850;-86
2021/09/28 01:09:10;;;;;;;;;;;;;;;;;;2084111;28;1299;-86
2021/09/28 01:10:13;;;;;;;;;;;;;;;;;;2082595;28;1863;-86
2021/09/28 01:11:15;;;;;;;;;;;;;;;;;;2059985;28;1345;-87
2021/09/28 01:12:17;;;;;;;;;;;;;;;;;;2068137;28;1240;-86
2021/09/28 01:13:17;;;;;;;;;;;;;;;;;;2075905;28;1356;-87
2021/09/28 01:14:19;;;;;;;;;;;;;;;;;;2059964;28;1347;-87
2021/09/28 01:15:21;;;;;;;;;;;;;;;;;;2059969;28;1352;-86
2021/09/28 01:16:24;;;;;;;;;;;;;;;;;;2068021;28;1379;-86
2021/09/28 01:17:24;;;;;;;;;;;;;;;;;;2075559;28;1342;-86
2021/09/28 01:18:27;;;;;;;;;;;;;;;;;;2076139;28;1841;-86
2021/09/28 01:19:28;;;;;;;;;;;;;;;;;;2075825;28;1910;-86
2021/09/28 01:20:29;;;;;;;;;;;;;;;;;;2067130;28;1884;-86
2021/09/28 01:21:33;;;;;;;;;;;;;;;;;;2066407;28;1188;-86
2021/09/28 01:22:34;;;;;;;;;;;;;;;;;;2067763;28;1347;-87
2021/09/28 01:23:35;;;;;;;;;;;;;;;;;;2071944;28;2092;-87
2021/09/28 01:24:37;;;;;;;;;;;;;;;;;;2067590;28;1367;-86
2021/09/28 01:25:38;;;;;;;;;;;;;;;;;;2068031;28;1346;-86
2021/09/28 01:26:40;;;;;;;;;;;;;;;;;;2067800;28;1457;-87
2021/09/28 01:27:41;;;;;;;;;;;;;;;;;;2067664;28;790;-87
2021/09/28 01:28:43;;;;;;;;;;;;;;;;;;2072222;28;1941;-86
2021/09/28 01:29:44;;;;;;;;;;;;;;;;;;2076025;28;1271;-87
2021/09/28 01:30:46;;;;;;;;;;;;;;;;;;2077624;28;1875;-87
2021/09/28 01:31:47;;;;;;;;;;;;;;;;;;2067588;28;1195;-86
2021/09/28 01:32:49;;;;;;;;;;;;;;;;;;2067032;28;1349;-87
2021/09/28 01:33:50;;;;;;;;;;;;;;;;;;2068059;28;1849;-87
2021/09/28 01:34:52;;;;;;;;;;;;;;;;;;2075572;28;1451;-86
2021/09/28 01:35:52;;;;;;;;;;;;;;;;;;2075844;28;1200;-86
2021/09/28 01:36:56;;;;;;;;;;;;;;;;;;2067171;28;1328;-86
2021/09/28 01:37:57;;;;;;;;;;;;;;;;;;2067826;28;1172;-86
2021/09/28 01:38:59;;;;;;;;;;;;;;;;;;2075637;28;1845;-86
2021/09/28 01:39:59;;;;;;;;;;;;;;;;;;2059590;28;1981;-86
2021/09/28 01:41:01;;;;;;;;;;;;;;;;;;2067772;28;2014;-86
2021/09/28 01:42:02;;;;;;;;;;;;;;;;;;2067003;28;1310;-86
2021/09/28 01:43:05;;;;;;;;;;;;;;;;;;2067323;28;1256;-86
2021/09/28 01:44:09;;;;;;;;;;;;;;;;;;2067806;28;1228;-86
2021/09/28 01:45:11;;;;;;;;;;;;;;;;;;2067609;28;1895;-86
2021/09/28 01:46:12;;;;;;;;;;;;;;;;;;2067944;28;864;-86
2021/09/28 01:47:15;;;;;;;;;;;;;;;;;;2075515;28;1340;-86
2021/09/28 01:48:15;;;;;;;;;;;;;;;;;;2068477;28;1834;-87
2021/09/28 01:49:18;;;;;;;;;;;;;;;;;;2067616;28;1503;-86
2021/09/28 01:50:19;;;;;;;;;;;;;;;;;;2073798;28;1946;-86
2021/09/28 01:51:20;;;;;;;;;;;;;;;;;;2075472;28;1484;-86
2021/09/28 01:52:23;;;;;;;;;;;;;;;;;;2075592;28;812;-86
2021/09/28 01:53:25;;;;;;;;;;;;;;;;;;2075710;28;1545;-86
2021/09/28 01:54:25;;;;;;;;;;;;;;;;;;2067300;28;1273;-87
2021/09/28 01:55:27;;;;;;;;;;;;;;;;;;2070119;28;1974;-86
2021/09/28 01:56:28;;;;;;;;;;;;;;;;;;2083889;28;899;-86
2021/09/28 01:57:30;;;;;;;;;;;;;;;;;;2067582;28;1457;-85
2021/09/28 01:58:32;;;;;;;;;;;;;;;;;;2067134;28;1874;-86
2021/09/28 01:59:34;;;;;;;;;;;;;;;;;;2067581;28;1918;-86
2021/09/28 02:00:35;;;;;;;;;;;;;;;;;;2063429;28;1848;-86
2021/09/28 02:01:37;;;;;;;;;;;;;;;;;;2059423;28;1318;-86
2021/09/28 02:02:38;;;;;;;;;;;;;;;;;;2059111;28;1328;-86
2021/09/28 02:03:39;;;;;;;;;;;;;;;;;;2059608;28;1222;-86
2021/09/28 02:04:41;;;;;;;;;;;;;;;;;;2067529;28;1337;-86
2021/09/28 02:05:44;;;;;;;;;;;;;;;;;;2075764;28;1918;-85
2021/09/28 02:06:46;;;;;;;;;;;;;;;;;;2059352;28;1206;-86
2021/09/28 02:07:48;;;;;;;;;;;;;;;;;;2067336;28;1248;-86
2021/09/28 02:08:50;;;;;;;;;;;;;;;;;;2073119;28;1866;-86
2021/09/28 02:09:51;;;;;;;;;;;;;;;;;;2083416;28;1358;-86
2021/09/28 02:10:53;;;;;;;;;;;;;;;;;;2082503;28;1927;-88
2021/09/28 02:11:54;;;;;;;;;;;;;;;;;;2083189;28;1436;-86
2021/09/28 02:12:56;;;;;;;;;;;;;;;;;;2083796;28;1204;-86
2021/09/28 02:13:57;;;;;;;;;;;;;;;;;;2069195;28;1873;-86
2021/09/28 02:14:58;;;;;;;;;;;;;;;;;;2059291;28;1316;-86
2021/09/28 02:15:59;;;;;;;;;;;;;;;;;;2067590;28;1859;-86
2021/09/28 02:17:01;;;;;;;;;;;;;;;;;;2067161;28;1414;-87
2021/09/28 02:18:02;;;;;;;;;;;;;;;;;;2059629;28;1323;-88
2021/09/28 02:19:05;;;;;;;;;;;;;;;;;;2067818;28;1897;-88
2021/09/28 02:20:06;;;;;;;;;;;;;;;;;;2075546;28;1937;-87
2021/09/28 02:21:08;;;;;;;;;;;;;;;;;;2075252;28;1270;-87
2021/09/28 02:22:08;;;;;;;;;;;;;;;;;;2075560;28;1185;-87
2021/09/28 02:23:11;;;;;;;;;;;;;;;;;;2074917;28;1897;-87
2021/09/28 02:24:13;;;;;;;;;;;;;;;;;;2067081;28;1440;-87
2021/09/28 02:25:19;;;;;;;;;;;;;;;;;;2065833;28;1864;-87
2021/09/28 02:26:22;;;;;;;;;;;;;;;;;;2059953;28;1277;-86
2021/09/28 02:27:23;;;;;;;;;;;;;;;;;;2059451;28;1226;-86
2021/09/28 02:28:24;;;;;;;;;;;;;;;;;;2058922;28;1201;-86
2021/09/28 02:29:25;;;;;;;;;;;;;;;;;;2066880;28;1198;-86
2021/09/28 02:30:27;;;;;;;;;;;;;;;;;;2074430;28;2037;-86
2021/09/28 02:31:28;;;;;;;;;;;;;;;;;;2075404;28;1308;-86
2021/09/28 02:32:29;;;;;;;;;;;;;;;;;;2074901;28;1225;-86
2021/09/28 02:33:30;;;;;;;;;;;;;;;;;;2065723;28;1854;-86
2021/09/28 02:34:35;;;;;;;;;;;;;;;;;;2083098;28;1216;-86
2021/09/28 02:35:36;;;;;;;;;;;;;;;;;;2071683;28;1781;-86
2021/09/28 02:36:38;;;;;;;;;;;;;;;;;;2074786;28;1573;-86
2021/09/28 02:37:39;;;;;;;;;;;;;;;;;;2066780;28;1160;-86
2021/09/28 02:38:44;;;;;;;;;;;;;;;;;;2063298;28;1858;-86
2021/09/28 02:39:45;;;;;;;;;;;;;;;;;;2075467;28;1922;-86
2021/09/28 02:40:47;;;;;;;;;;;;;;;;;;2065912;28;1837;-86
2021/09/28 02:41:49;;;;;;;;;;;;;;;;;;2059133;28;1260;-86
2021/09/28 02:42:50;;;;;;;;;;;;;;;;;;2067177;28;1399;-87
2021/09/28 02:43:52;;;;;;;;;;;;;;;;;;2067226;28;1411;-87
2021/09/28 02:44:56;;;;;;;;;;;;;;;;;;2066501;28;1219;-86
2021/09/28 02:45:58;;;;;;;;;;;;;;;;;;2059987;28;1837;-86
2021/09/28 02:46:59;;;;;;;;;;;;;;;;;;2067038;28;1319;-86
2021/09/28 02:48:00;;;;;;;;;;;;;;;;;;2067259;28;1212;-86
2021/09/28 02:49:02;;;;;;;;;;;;;;;;;;2066914;28;1333;-86
2021/09/28 02:50:04;;;;;;;;;;;;;;;;;;2067147;28;1844;-87
2021/09/28 02:51:05;;;;;;;;;;;;;;;;;;2066680;28;1355;-85
2021/09/28 02:52:07;;;;;;;;;;;;;;;;;;2066311;28;1208;-86
2021/09/28 02:53:07;;;;;;;;;;;;;;;;;;2074879;28;1409;-86
2021/09/28 02:54:11;;;;;;;;;;;;;;;;;;2067230;28;1362;-86
2021/09/28 02:55:12;;;;;;;;;;;;;;;;;;2067176;28;1832;-86
2021/09/28 02:56:13;;;;;;;;;;;;;;;;;;2067162;28;1436;-86
2021/09/28 02:57:14;;;;;;;;;;;;;;;;;;2059469;28;1430;-86
2021/09/28 02:58:16;;;;;;;;;;;;;;;;;;2067030;28;1221;-86
2021/09/28 02:59:17;;;;;;;;;;;;;;;;;;2074683;28;1291;-86
2021/09/28 03:00:19;;;;;;;;;;;;;;;;;;2059554;28;1906;-86
2021/09/28 03:01:20;;;;;;;;;;;;;;;;;;2067077;28;1217;-86
2021/09/28 03:02:21;;;;;;;;;;;;;;;;;;2074864;28;1201;-86
2021/09/28 03:03:23;;;;;;;;;;;;;;;;;;2059212;28;1348;-86
2021/09/28 03:04:24;;;;;;;;;;;;;;;;;;2058863;28;1245;-86
2021/09/28 03:05:26;;;;;;;;;;;;;;;;;;2067044;28;1836;-87
2021/09/28 03:06:27;;;;;;;;;;;;;;;;;;2058380;28;1348;-86
2021/09/28 03:07:29;;;;;;;;;;;;;;;;;;2059197;28;1261;-86
2021/09/28 03:08:33;;;;;;;;;;;;;;;;;;2058811;28;1839;-86
2021/09/28 03:09:36;;;;;;;;;;;;;;;;;;2059462;28;1361;-85
2021/09/28 03:10:37;;;;;;;;;;;;;;;;;;2066576;28;1820;-86
2021/09/28 03:11:39;;;;;;;;;;;;;;;;;;2067013;28;1252;-86
2021/09/28 03:12:40;;;;;;;;;;;;;;;;;;2058310;28;1258;-86
2021/09/28 03:13:42;;;;;;;;;;;;;;;;;;2066961;28;1885;-86
2021/09/28 03:14:42;;;;;;;;;;;;;;;;;;2066966;28;1213;-86
2021/09/28 03:15:44;;;;;;;;;;;;;;;;;;2075278;28;2084;-86
2021/09/28 03:16:45;;;;;;;;;;;;;;;;;;2066448;28;1193;-85
2021/09/28 03:17:47;;;;;;;;;;;;;;;;;;2067165;28;1304;-86
2021/09/28 03:18:50;;;;;;;;;;;;;;;;;;2074955;28;891;-86
2021/09/28 03:19:52;;;;;;;;;;;;;;;;;;2074620;28;1977;-87
2021/09/28 03:20:53;;;;;;;;;;;;;;;;;;2066631;28;1868;-87
2021/09/28 03:21:54;;;;;;;;;;;;;;;;;;2066579;28;1307;-87
2021/09/28 03:22:55;;;;;;;;;;;;;;;;;;2074547;28;1393;-87
2021/09/28 03:24:00;;;;;;;;;;;;;;;;;;2066796;28;1257;-86
2021/09/28 03:25:02;;;;;;;;;;;;;;;;;;2066583;28;1251;-86
2021/09/28 03:26:04;;;;;;;;;;;;;;;;;;2075488;28;1270;-86
2021/09/28 03:27:05;;;;;;;;;;;;;;;;;;2066163;28;1418;-85
2021/09/28 03:28:07;;;;;;;;;;;;;;;;;;2066994;28;1833;-86
2021/09/28 03:29:07;;;;;;;;;;;;;;;;;;2074535;28;1328;-85
2021/09/28 03:30:10;;;;;;;;;;;;;;;;;;2074568;28;1985;-86
2021/09/28 03:31:12;;;;;;;;;;;;;;;;;;2074623;28;829;-86
2021/09/28 03:32:12;;;;;;;;;;;;;;;;;;2066758;28;1293;-85
2021/09/28 03:33:14;;;;;;;;;;;;;;;;;;2066687;28;1266;-86
2021/09/28 03:34:15;;;;;;;;;;;;;;;;;;2066387;28;1237;-86
2021/09/28 03:35:17;;;;;;;;;;;;;;;;;;2059078;28;1857;-86
2021/09/28 03:36:19;;;;;;;;;;;;;;;;;;2066711;28;826;-86
2021/09/28 03:37:19;;;;;;;;;;;;;;;;;;2074374;28;1222;-86
2021/09/28 03:38:23;;;;;;;;;;;;;;;;;;2074804;28;1303;-86
2021/09/28 03:39:24;;;;;;;;;;;;;;;;;;2067127;28;1205;-86
2021/09/28 03:40:29;;;;;;;;;;;;;;;;;;2067050;28;1985;-85
2021/09/28 03:41:30;;;;;;;;;;;;;;;;;;2066705;28;1202;-85
2021/09/28 03:42:31;;;;;;;;;;;;;;;;;;2066500;28;1327;-86
2021/09/28 03:43:32;;;;;;;;;;;;;;;;;;2066681;28;1197;-85
2021/09/28 03:44:34;;;;;;;;;;;;;;;;;;2065939;28;1205;-85
2021/09/28 03:45:35;;;;;;;;;;;;;;;;;;2075015;28;1878;-84
2021/09/28 03:46:37;;;;;;;;;;;;;;;;;;2074331;28;1227;-83
2021/09/28 03:47:38;;;;;;;;;;;;;;;;;;2066330;28;1199;-83
2021/09/28 03:48:39;;;;;;;;;;;;;;;;;;2066243;28;1312;-87
2021/09/28 03:49:40;;;;;;;;;;;;;;;;;;2074820;28;1323;-86
2021/09/28 03:50:43;;;;;;;;;;;;;;;;;;2079795;28;2041;-85
2021/09/28 03:51:43;;;;;;;;;;;;;;;;;;2074227;28;1439;-86
2021/09/28 03:52:45;;;;;;;;;;;;;;;;;;2074451;28;1387;-86
2021/09/28 03:53:50;;;;;;;;;;;;;;;;;;2074538;28;1288;-86
2021/09/28 03:54:52;;;;;;;;;;;;;;;;;;2075104;28;1576;-85
2021/09/28 03:55:54;;;;;;;;;;;;;;;;;;2082642;28;1962;-85
2021/09/28 03:56:56;;;;;;;;;;;;;;;;;;2082854;28;1251;-85
2021/09/28 03:57:57;;;;;;;;;;;;;;;;;;2074583;28;1335;-85
2021/09/28 03:58:59;;;;;;;;;;;;;;;;;;2066209;28;1272;-85
2021/09/28 04:00:02;;;;;;;;;;;;;;;;;;2066274;28;1906;-86
2021/09/28 04:01:06;;;;;;;;;;;;;;;;;;2067035;28;1161;-88
2021/09/28 04:02:07;;;;;;;;;;;;;;;;;;2066793;28;1323;-87
2021/09/28 04:03:09;;;;;;;;;;;;;;;;;;2074627;28;1397;-86
2021/09/28 04:04:14;;;;;;;;;;;;;;;;;;2074657;28;1361;-85
2021/09/28 04:05:16;;;;;;;;;;;;;;;;;;2061383;28;1435;-86
2021/09/28 04:06:17;;;;;;;;;;;;;;;;;;2074242;28;1433;-86
2021/09/28 04:07:21;;;;;;;;;;;;;;;;;;2074685;28;1357;-86
2021/09/28 04:08:22;;;;;;;;;;;;;;;;;;2066437;28;1342;-87
2021/09/28 04:09:27;;;;;;;;;;;;;;;;;;2067111;28;1280;-87
2021/09/28 04:10:28;;;;;;;;;;;;;;;;;;2071458;28;1385;-87
2021/09/28 04:11:33;;;;;;;;;;;;;;;;;;2063630;28;1410;-86
2021/09/28 04:12:34;;;;;;;;;;;;;;;;;;2058914;28;1359;-88
2021/09/28 04:13:51;;;;;;;;;;;;;;;;;;2058274;28;1852;-87
2021/09/28 04:14:59;;;;;;;;;;;;;;;;;;2066383;28;1374;-87
2021/09/28 04:16:05;;;;;;;;;;;;;;;;;;2066355;28;2010;-88
2021/09/28 04:17:08;;;;;;;;;;;;;;;;;;2075193;28;1446;-87
2021/09/28 04:18:13;;;;;;;;;;;;;;;;;;2074105;28;2067;-88
2021/09/28 04:19:14;;;;;;;;;;;;;;;;;;2066603;28;1319;-88
2021/09/28 04:20:16;;;;;;;;;;;;;;;;;;2065670;28;1906;-87
2021/09/28 04:21:17;;;;;;;;;;;;;;;;;;2074505;28;1312;-87
2021/09/28 04:22:19;;;;;;;;;;;;;;;;;;2073886;28;1285;-88
2021/09/28 04:23:20;;;;;;;;;;;;;;;;;;2082945;28;773;-87
2021/09/28 04:24:23;;;;;;;;;;;;;;;;;;2074516;28;1389;-87
2021/09/28 04:25:24;;;;;;;;;;;;;;;;;;2063640;28;2058;-84
2021/09/28 04:26:26;;;;;;;;;;;;;;;;;;2064912;28;1475;-84
2021/09/28 04:27:28;;;;;;;;;;;;;;;;;;2066079;28;1344;-84
2021/09/28 04:28:30;;;;;;;;;;;;;;;;;;2066185;28;1468;-84
2021/09/28 04:29:31;;;;;;;;;;;;;;;;;;2066091;28;1202;-84
2021/09/28 04:30:33;;;;;;;;;;;;;;;;;;2074068;28;1377;-84
2021/09/28 04:31:35;;;;;;;;;;;;;;;;;;2081809;28;1621;-84
2021/09/28 04:32:37;;;;;;;;;;;;;;;;;;2065915;28;1362;-84
2021/09/28 04:33:38;;;;;;;;;;;;;;;;;;2061515;28;2108;-84
2021/09/28 04:34:41;;;;;;;;;;;;;;;;;;2056468;28;1312;-84
2021/09/28 04:35:42;;;;;;;;;;;;;;;;;;2050607;28;2084;-84
2021/09/28 04:36:44;;;;;;;;;;;;;;;;;;2058410;28;1452;-85
2021/09/28 04:37:45;;;;;;;;;;;;;;;;;;2073843;28;1293;-84
2021/09/28 04:38:47;;;;;;;;;;;;;;;;;;2072744;28;1944;-84
2021/09/28 04:39:48;;;;;;;;;;;;;;;;;;2066581;28;1342;-85
2021/09/28 04:40:51;;;;;;;;;;;;;;;;;;2065566;28;2011;-84
2021/09/28 04:41:52;;;;;;;;;;;;;;;;;;2073733;28;1705;-84
2021/09/28 04:42:55;;;;;;;;;;;;;;;;;;2065539;28;1495;-86
2021/09/28 04:43:56;;;;;;;;;;;;;;;;;;2065283;28;805;-85
2021/09/28 04:44:57;;;;;;;;;;;;;;;;;;2065378;28;1336;-84
2021/09/28 04:45:59;;;;;;;;;;;;;;;;;;2066439;28;1855;-84
2021/09/28 04:47:00;;;;;;;;;;;;;;;;;;2074224;28;1300;-84
2021/09/28 04:48:02;;;;;;;;;;;;;;;;;;2058591;28;1355;-94
2021/09/28 04:49:03;;;;;;;;;;;;;;;;;;2059142;28;1276;-88
2021/09/28 04:50:05;;;;;;;;;;;;;;;;;;2057725;28;1237;-91
2021/09/28 04:51:07;;;;;;;;;;;;;;;;;;2060690;28;1445;-89
2021/09/28 04:52:08;;;;;;;;;;;;;;;;;;2063073;28;1398;-89
2021/09/28 04:53:10;;;;;;;;;;;;;;;;;;2061016;28;1441;-89
2021/09/28 04:54:10;;;;;;;;;;;;;;;;;;2066389;28;1464;-90
2021/09/28 04:55:12;;;;;;;;;;;;;;;;;;2066276;28;1385;-89
2021/09/28 04:56:13;;;;;;;;;;;;;;;;;;2067332;28;1457;-90
2021/09/28 04:57:15;;;;;;;;;;;;;;;;;;2067929;28;1397;-89
2021/09/28 04:58:17;;;;;;;;;;;;;;;;;;2066974;28;1743;-91
2021/09/28 04:59:19;;;;;;;;;;;;;;;;;;2078762;28;1472;-89
2021/09/28 05:00:20;;;;;;;;;;;;;;;;;;2079058;28;1672;-89
2021/09/28 05:01:21;;;;;;;;;;;;;;;;;;2067857;28;2865;-89
2021/09/28 05:02:22;;;;;;;;;;;;;;;;;;2064265;28;1386;-90
2021/09/28 05:03:24;;;;;;;;;;;;;;;;;;2064886;28;1731;-90
2021/09/28 05:04:25;;;;;;;;;;;;;;;;;;2064400;28;1492;-84
2021/09/28 05:05:27;;;;;;;;;;;;;;;;;;2064913;28;1425;-83
2021/09/28 05:06:27;;;;;;;;;;;;;;;;;;2063265;28;1469;-83
2021/09/28 05:07:29;;;;;;;;;;;;;;;;;;2064677;28;1465;-83
2021/09/28 05:08:31;;;;;;;;;;;;;;;;;;2076749;28;1651;-84
2021/09/28 05:09:32;;;;;;;;;;;;;;;;;;2078942;28;1499;-83
2021/09/28 05:10:34;;;;;;;;;;;;;;;;;;2075667;28;1744;-83
2021/09/28 05:11:36;;;;;;;;;;;;;;;;;;2072252;28;1932;-83
2021/09/28 05:12:36;;;;;;;;;;;;;;;;;;2064319;28;1517;-84
2021/09/28 05:13:40;;;;;;;;;;;;;;;;;;2075392;28;1951;-83
2021/09/28 05:14:40;;;;;;;;;;;;;;;;;;2067511;28;1498;-83
2021/09/28 05:15:42;;;;;;;;;;;;;;;;;;2068036;28;1890;-83
2021/09/28 05:16:43;;;;;;;;;;;;;;;;;;2075586;28;1571;-83
2021/09/28 05:17:45;;;;;;;;;;;;;;;;;;2075491;28;1209;-83
2021/09/28 05:18:45;;;;;;;;;;;;;;;;;;2067560;28;1200;-82
2021/09/28 05:19:47;;;;;;;;;;;;;;;;;;2067033;28;1339;-83
2021/09/28 05:20:50;;;;;;;;;;;;;;;;;;2075488;28;1910;-83
2021/09/28 05:21:51;;;;;;;;;;;;;;;;;;2067838;28;819;-83
2021/09/28 05:22:53;;;;;;;;;;;;;;;;;;2066846;28;1220;-83
2021/09/28 05:23:53;;;;;;;;;;;;;;;;;;2059478;28;1327;-83
2021/09/28 05:24:55;;;;;;;;;;;;;;;;;;2067253;28;1744;-83
2021/09/28 05:25:56;;;;;;;;;;;;;;;;;;2067618;28;2009;-83
2021/09/28 05:26:59;;;;;;;;;;;;;;;;;;2075236;28;1706;-83
2021/09/28 05:28:01;;;;;;;;;;;;;;;;;;2075446;28;1638;-83
2021/09/28 05:29:03;;;;;;;;;;;;;;;;;;2059777;28;1862;-83
2021/09/28 05:30:06;;;;;;;;;;;;;;;;;;2066976;28;1816;-84
2021/09/28 05:31:06;;;;;;;;;;;;;;;;;;2075000;28;1239;-83
2021/09/28 05:32:09;;;;;;;;;;;;;;;;;;2059385;28;1221;-83
2021/09/28 05:33:09;;;;;;;;;;;;;;;;;;2067457;28;1877;-84
2021/09/28 05:34:11;;;;;;;;;;;;;;;;;;2083655;28;1599;-83
2021/09/28 05:35:12;;;;;;;;;;;;;;;;;;2082119;28;1914;-83
2021/09/28 05:36:14;;;;;;;;;;;;;;;;;;2075672;28;1311;-83
2021/09/28 05:37:14;;;;;;;;;;;;;;;;;;2067118;28;1344;-85
2021/09/28 05:38:16;;;;;;;;;;;;;;;;;;2059297;28;1557;-84
2021/09/28 05:39:17;;;;;;;;;;;;;;;;;;2067537;28;788;-83
2021/09/28 05:40:19;;;;;;;;;;;;;;;;;;2076752;28;1866;-83
2021/09/28 05:41:19;;;;;;;;;;;;;;;;;;2083618;28;1906;-83
2021/09/28 05:42:22;;;;;;;;;;;;;;;;;;2083576;28;1350;-83
2021/09/28 05:43:22;;;;;;;;;;;;;;;;;;2075613;28;1372;-84
2021/09/28 05:44:26;;;;;;;;;;;;;;;;;;2058280;28;1210;-83
2021/09/28 05:45:26;;;;;;;;;;;;;;;;;;2072798;28;1681;-87
2021/09/28 05:46:28;;;;;;;;;;;;;;;;;;2083276;28;1329;-83
2021/09/28 05:47:29;;;;;;;;;;;;;;;;;;2073960;28;1551;-83
2021/09/28 05:48:30;;;;;;;;;;;;;;;;;;2083124;28;1425;-83
2021/09/28 05:49:32;;;;;;;;;;;;;;;;;;2083148;28;1315;-83
2021/09/28 05:50:35;;;;;;;;;;;;;;;;;;2066938;28;1305;-83
2021/09/28 05:51:37;;;;;;;;;;;;;;;;;;2083831;28;1629;-83
2021/09/28 05:52:38;;;;;;;;;;;;;;;;;;2082737;28;1797;-83
2021/09/28 05:53:39;;;;;;;;;;;;;;;;;;2083800;28;1280;-83
2021/09/28 05:54:48;;;;;;;;;;;;;;;;;;2083113;28;1310;-83
2021/09/28 05:55:52;;;;;;;;;;;;;;;;;;2074543;28;1543;-83
2021/09/28 05:56:53;;;;;;;;;;;;;;;;;;2059490;28;1360;-83
2021/09/28 05:57:54;;;;;;;;;;;;;;;;;;2068511;28;1674;-83
2021/09/28 05:58:55;;;;;;;;;;;;;;;;;;2076505;28;1396;-83
2021/09/28 05:59:59;;;;;;;;;;;;;;;;;;2067103;28;1611;-83
2021/09/28 06:00:59;;;;;;;;;;;;;;;;;;2067530;28;1927;-83
2021/09/28 06:02:01;;;;;;;;;;;;;;;;;;2067310;28;1243;-82
2021/09/28 06:03:02;;;;;;;;;;;;;;;;;;2059174;28;1248;-83
2021/09/28 06:04:05;;;;;;;;;;;;;;;;;;2059106;28;1355;-83
2021/09/28 06:05:08;;;;;;;;;;;;;;;;;;2072791;28;1598;-83
2021/09/28 06:06:09;;;;;;;;;;;;;;;;;;2075600;28;825;-83
2021/09/28 06:07:11;;;;;;;;;;;;;;;;;;2074589;28;1597;-83
2021/09/28 06:08:14;;;;;;;;;;;;;;;;;;2066417;28;2016;-83
2021/09/28 06:09:15;;;;;;;;;;;;;;;;;;2067430;28;1296;-83
2021/09/28 06:10:16;;;;;;;;;;;;;;;;;;2075101;28;2033;-84
2021/09/28 06:11:17;;;;;;;;;;;;;;;;;;2067834;28;1212;-84
2021/09/28 06:12:19;;;;;;;;;;;;;;;;;;2067221;28;1208;-83
2021/09/28 06:13:19;;;;;;;;;;;;;;;;;;2067765;28;1562;-84
2021/09/28 06:14:23;;;;;;;;;;;;;;;;;;2067136;28;1528;-83
2021/09/28 06:15:26;;;;;;;;;;;;;;;;;;2066490;28;2031;-84
2021/09/28 06:16:29;;;;;;;;;;;;;;;;;;2059486;28;1213;-84
2021/09/28 06:17:31;;;;;;;;;;;;;;;;;;2067548;28;1372;-83
2021/09/28 06:18:31;;;;;;;;;;;;;;;;;;2078889;28;1444;-83
2021/09/28 06:19:35;;;;;;;;;;;;;;;;;;2075420;28;1235;-83
2021/09/28 06:20:35;;;;;;;;;;;;;;;;;;2075301;28;1570;-84
2021/09/28 06:21:37;;;;;;;;;;;;;;;;;;2083390;28;1906;-82
2021/09/28 06:22:38;;;;;;;;;;;;;;;;;;2066694;28;1667;-83
2021/09/28 06:23:41;;;;;;;;;;;;;;;;;;2067374;28;2032;-84
2021/09/28 06:24:44;;;;;;;;;;;;;;;;;;2074782;28;1483;-84
2021/09/28 06:25:44;;;;;;;;;;;;;;;;;;2075122;28;2085;-84
2021/09/28 06:26:46;;;;;;;;;;;;;;;;;;2066853;28;1301;-82
2021/09/28 06:27:47;;;;;;;;;;;;;;;;;;2073022;28;1598;-83
2021/09/28 06:28:49;;;;;;;;;;;;;;;;;;2074436;28;1443;-84
2021/09/28 06:29:50;;;;;;;;;;;;;;;;;;2066665;28;1303;-84
2021/09/28 06:30:53;;;;;;;;;;;;;;;;;;2068419;28;1900;-84
2021/09/28 06:31:54;;;;;;;;;;;;;;;;;;2079519;28;1449;-83
2021/09/28 06:32:56;;;;;;;;;;;;;;;;;;2082685;28;1285;-84
2021/09/28 06:33:57;;;;;;;;;;;;;;;;;;2083137;28;1331;-84
2021/09/28 06:34:59;;;;;;;;;;;;;;;;;;2066879;28;1462;-83
2021/09/28 06:36:00;;;;;;;;;;;;;;;;;;2067495;28;1866;-83
2021/09/28 06:37:01;;;;;;;;;;;;;;;;;;2066617;28;1229;-83
2021/09/28 06:38:06;;;;;;;;;;;;;;;;;;2066580;28;1655;-84
2021/09/28 06:39:07;;;;;;;;;;;;;;;;;;2066829;28;1257;-83
2021/09/28 06:40:10;;;;;;;;;;;;;;;;;;2067522;28;1888;-84
2021/09/28 06:41:12;;;;;;;;;;;;;;;;;;2074789;28;1981;-83
2021/09/28 06:42:12;;;;;;;;;;;;;;;;;;2075268;28;1516;-84
2021/09/28 06:43:14;;;;;;;;;;;;;;;;;;2058941;28;1862;-83
2021/09/28 06:44:16;;;;;;;;;;;;;;;;;;2058151;28;1282;-84
2021/09/28 06:45:18;;;;;;;;;;;;;;;;;;2059525;28;1829;-84
2021/09/28 06:46:20;;;;;;;;;;;;;;;;;;2066987;28;1296;-84
2021/09/28 06:47:22;;;;;;;;;;;;;;;;;;2066951;28;1699;-83
2021/09/28 06:48:23;;;;;;;;;;;;;;;;;;2067157;28;1932;-84
2021/09/28 06:49:24;;;;;;;;;;;;;;;;;;2066902;28;1311;-83
2021/09/28 06:50:26;;;;;;;;;;;;;;;;;;2067280;28;1757;-84
2021/09/28 06:51:28;;;;;;;;;;;;;;;;;;2074542;28;1565;-84
2021/09/28 06:52:30;;;;;;;;;;;;;;;;;;2066772;28;1334;-83
2021/09/28 06:53:32;;;;;;;;;;;;;;;;;;2066104;28;1854;-84
2021/09/28 06:54:34;;;;;;;;;;;;;;;;;;2066674;28;1494;-84
2021/09/28 06:55:37;;;;;;;;;;;;;;;;;;2066629;28;1861;-84
2021/09/28 06:56:38;;;;;;;;;;;;;;;;;;2058987;28;1233;-84
2021/09/28 06:57:39;;;;;;;;;;;;;;;;;;2066543;28;1203;-84
2021/09/28 06:58:41;;;;;;;;;;;;;;;;;;2075060;28;1900;-84
2021/09/28 06:59:43;;;;;;;;;;;;;;;;;;2074917;28;1420;-84
2021/09/28 07:00:43;;;;;;;;;;;;;;;;;;2066807;28;1781;-84
2021/09/28 07:01:46;;;;;;;;;;;;;;;;;;2058740;28;1980;-84
2021/09/28 07:02:47;;;;;;;;;;;;;;;;;;2066920;28;1631;-84
2021/09/28 07:03:49;;;;;;;;;;;;;;;;;;2066670;28;1565;-83
2021/09/28 07:04:50;;;;;;;;;;;;;;;;;;2058502;28;1639;-83
2021/09/28 07:05:52;;;;;;;;;;;;;;;;;;2067095;28;1871;-84
2021/09/28 07:06:54;;;;;;;;;;;;;;;;;;2066658;28;1279;-83
2021/09/28 07:07:55;;;;;;;;;;;;;;;;;;2066259;28;1231;-84
2021/09/28 07:08:56;;;;;;;;;;;;;;;;;;2066679;28;1188;-84